createdAt,value
2022-11-05T00:02:35.471Z,7.80
2022-11-05T00:05:21.662Z,7.80
2022-11-05T00:08:10.789Z,7.70
2022-11-05T00:10:39.424Z,7.70
2022-11-05T00:13:27.384Z,7.70
2022-11-05T00:16:13.371Z,7.60
2022-11-05T00:18:40.842Z,7.60
2022-11-05T00:21:30.635Z,7.60
2022-11-05T00:24:20.393Z,7.60
2022-11-05T00:26:50.574Z,7.60
2022-11-05T00:29:17.764Z,7.60
2022-11-05T00:31:44.913Z,7.60
2022-11-05T00:34:12.564Z,7.60
2022-11-05T00:36:39.736Z,7.60
2022-11-05T00:39:07.068Z,7.60
2022-11-05T00:41:34.392Z,7.50
2022-11-05T00:44:20.454Z,7.50
2022-11-05T00:46:47.495Z,7.50
2022-11-05T00:49:32.957Z,7.50
2022-11-05T00:52:18.860Z,7.40
2022-11-05T00:54:46.026Z,7.40
2022-11-05T00:57:13.481Z,7.40
2022-11-05T00:59:40.987Z,7.30
2022-11-05T01:02:10.210Z,7.30
2022-11-05T01:04:37.647Z,7.30
2022-11-05T01:07:05.113Z,7.30
2022-11-05T01:09:32.460Z,7.30
2022-11-05T01:11:59.666Z,7.30
2022-11-05T01:14:26.883Z,7.20
2022-11-05T01:16:54.872Z,7.20
2022-11-05T01:19:22.200Z,7.20
2022-11-05T01:21:49.439Z,7.20
2022-11-05T01:24:16.606Z,7.20
2022-11-05T01:26:44.060Z,7.20
2022-11-05T01:29:12.027Z,7.20
2022-11-05T01:31:39.319Z,7.20
2022-11-05T01:34:06.847Z,7.10
2022-11-05T01:36:33.939Z,7.20
2022-11-05T01:39:02.407Z,7.10
2022-11-05T01:41:29.540Z,7.10
2022-11-05T01:44:01.851Z,7.10
2022-11-05T01:46:45.652Z,7.00
2022-11-05T01:49:39.420Z,7.10
2022-11-05T01:52:06.846Z,7.00
2022-11-05T01:54:36.444Z,7.00
2022-11-05T01:57:09.236Z,7.00
2022-11-05T01:59:41.626Z,6.90
2022-11-05T02:02:09.393Z,6.90
2022-11-05T02:04:49.004Z,6.90
2022-11-05T02:07:17.687Z,6.90
2022-11-05T02:09:58.292Z,6.90
2022-11-05T02:12:26.075Z,6.80
2022-11-05T02:14:53.271Z,6.80
2022-11-05T02:17:51.801Z,6.90
2022-11-05T02:20:40.934Z,6.90
2022-11-05T02:23:43.698Z,6.90
2022-11-05T02:26:33.137Z,6.90
2022-11-05T02:29:28.200Z,6.90
2022-11-05T02:32:24.953Z,6.90
2022-11-05T02:35:36.595Z,6.90
2022-11-05T02:38:18.430Z,6.80
2022-11-05T02:41:38.489Z,6.80
2022-11-05T02:44:54.019Z,6.80
2022-11-05T02:47:30.113Z,6.80
2022-11-05T02:50:06.194Z,6.70
2022-11-05T02:53:08.630Z,6.70
2022-11-05T02:55:59.896Z,6.70
2022-11-05T02:58:33.815Z,6.70
2022-11-05T03:01:02.656Z,6.60
2022-11-05T03:03:43.187Z,6.60
2022-11-05T03:06:34.454Z,6.50
2022-11-05T03:09:19.885Z,6.50
2022-11-05T03:11:50.351Z,6.40
2022-11-05T03:14:20.667Z,6.40
2022-11-05T03:17:08.259Z,6.30
2022-11-05T03:20:01.432Z,6.30
2022-11-05T03:22:35.856Z,6.20
2022-11-05T03:25:08.833Z,6.20
2022-11-05T03:27:39.783Z,6.20
2022-11-05T03:30:10.738Z,6.10
2022-11-05T03:32:44.615Z,6.10
2022-11-05T03:35:20.128Z,6.00
2022-11-05T03:37:51.436Z,6.00
2022-11-05T03:40:20.500Z,6.00
2022-11-05T03:42:52.206Z,6.00
2022-11-05T03:45:25.978Z,5.90
2022-11-05T03:47:55.493Z,5.90
2022-11-05T03:50:43.978Z,5.90
2022-11-05T03:53:19.167Z,5.90
2022-11-05T03:55:51.124Z,5.80
2022-11-05T03:58:21.975Z,5.80
2022-11-05T04:00:51.164Z,5.80
2022-11-05T04:03:18.518Z,5.80
2022-11-05T04:06:06.265Z,5.80
2022-11-05T04:08:51.961Z,5.70
2022-11-05T04:11:37.287Z,5.70
2022-11-05T04:14:04.751Z,5.70
2022-11-05T04:16:50.550Z,5.70
2022-11-05T04:19:38.085Z,5.60
2022-11-05T04:22:23.720Z,5.60
2022-11-05T04:24:50.988Z,5.50
2022-11-05T04:27:18.264Z,5.50
2022-11-05T04:30:04.355Z,5.50
2022-11-05T04:32:31.470Z,5.50
2022-11-05T04:34:58.531Z,5.50
2022-11-05T04:37:25.493Z,5.50
2022-11-05T04:39:52.788Z,5.40
2022-11-05T04:42:20.223Z,5.40
2022-11-05T04:44:47.469Z,5.40
2022-11-05T04:47:14.771Z,5.40
2022-11-05T04:49:42.085Z,5.30
2022-11-05T04:52:09.479Z,5.30
2022-11-05T04:54:36.933Z,5.30
2022-11-05T04:57:04.040Z,5.20
2022-11-05T04:59:31.222Z,5.30
2022-11-05T05:01:58.611Z,5.20
2022-11-05T05:04:26.058Z,5.20
2022-11-05T05:06:54.209Z,5.20
2022-11-05T05:09:21.505Z,5.20
2022-11-05T05:11:48.606Z,5.20
2022-11-05T05:14:15.984Z,5.20
2022-11-05T05:16:43.054Z,5.20
2022-11-05T05:19:10.332Z,5.10
2022-11-05T05:21:40.890Z,5.00
2022-11-05T05:24:21.451Z,5.10
2022-11-05T05:26:50.455Z,5.00
2022-11-05T05:29:19.007Z,5.00
2022-11-05T05:31:46.457Z,5.10
2022-11-05T05:34:14.926Z,5.10
2022-11-05T05:36:42.541Z,5.10
2022-11-05T05:39:11.391Z,5.00
2022-11-05T05:41:38.742Z,5.10
2022-11-05T05:44:07.099Z,5.00
2022-11-05T05:46:34.371Z,5.00
2022-11-05T05:49:01.689Z,5.00
2022-11-05T05:51:29.141Z,5.00
2022-11-05T05:53:56.564Z,5.00
2022-11-05T05:56:23.649Z,4.90
2022-11-05T05:58:51.406Z,4.90
2022-11-05T06:01:20.171Z,4.90
2022-11-05T06:03:49.396Z,4.90
2022-11-05T06:06:21.355Z,4.90
2022-11-05T06:08:49.457Z,4.80
2022-11-05T06:11:16.801Z,4.80
2022-11-05T06:13:43.995Z,4.80
2022-11-05T06:16:12.225Z,4.80
2022-11-05T06:18:40.105Z,4.80
2022-11-05T06:21:10.783Z,4.80
2022-11-05T06:23:40.146Z,4.70
2022-11-05T06:26:14.621Z,4.70
2022-11-05T06:28:42.397Z,4.70
2022-11-05T06:31:14.374Z,4.60
2022-11-05T06:33:42.454Z,4.60
2022-11-05T06:36:14.750Z,4.60
2022-11-05T06:38:41.983Z,4.60
2022-11-05T06:41:10.760Z,4.60
2022-11-05T06:43:38.754Z,4.60
2022-11-05T06:46:06.777Z,4.50
2022-11-05T06:48:34.295Z,4.50
2022-11-05T06:51:01.962Z,4.50
2022-11-05T06:53:29.342Z,4.60
2022-11-05T06:55:56.960Z,4.60
2022-11-05T06:58:24.325Z,4.60
2022-11-05T07:00:51.615Z,4.60
2022-11-05T07:03:19.134Z,4.60
2022-11-05T07:05:49.092Z,4.70
2022-11-05T07:08:17.374Z,4.70
2022-11-05T07:10:45.237Z,4.70
2022-11-05T07:13:13.008Z,4.70
2022-11-05T07:15:40.478Z,4.70
2022-11-05T07:18:07.752Z,4.70
2022-11-05T07:20:35.783Z,4.70
2022-11-05T07:23:10.676Z,4.70
2022-11-05T07:25:38.722Z,4.70
2022-11-05T07:28:06.903Z,4.70
2022-11-05T07:30:35.700Z,4.80
2022-11-05T07:33:04.243Z,4.80
2022-11-05T07:35:31.787Z,4.90
2022-11-05T07:37:59.097Z,4.90
2022-11-05T07:40:28.684Z,4.90
2022-11-05T07:43:01.151Z,5.00
2022-11-05T07:45:30.241Z,5.00
2022-11-05T07:48:02.896Z,5.10
2022-11-05T07:50:33.283Z,5.10
2022-11-05T07:53:05.030Z,5.20
2022-11-05T07:55:33.066Z,5.20
2022-11-05T07:58:00.499Z,5.30
2022-11-05T08:00:28.951Z,5.30
2022-11-05T08:03:07.854Z,5.30
2022-11-05T08:05:42.656Z,5.40
2022-11-05T08:08:11.083Z,5.40
2022-11-05T08:10:39.989Z,5.40
2022-11-05T08:13:09.135Z,5.40
2022-11-05T08:15:36.942Z,5.50
2022-11-05T08:18:15.055Z,5.50
2022-11-05T08:20:45.425Z,5.50
2022-11-05T08:23:13.121Z,5.60
2022-11-05T08:25:42.973Z,5.60
2022-11-05T08:28:12.690Z,5.70
2022-11-05T08:30:39.828Z,5.70
2022-11-05T08:33:10.589Z,5.70
2022-11-05T08:35:40.035Z,5.80
2022-11-05T08:38:09.444Z,5.90
2022-11-05T08:40:37.218Z,5.90
2022-11-05T08:43:07.079Z,5.90
2022-11-05T08:45:38.190Z,6.00
2022-11-05T08:48:11.419Z,6.10
2022-11-05T08:50:40.181Z,6.20
2022-11-05T08:53:10.969Z,6.20
2022-11-05T08:55:39.124Z,6.30
2022-11-05T08:58:10.905Z,6.40
2022-11-05T09:00:39.005Z,6.50
2022-11-05T09:03:08.484Z,6.50
2022-11-05T09:05:39.055Z,6.70
2022-11-05T09:08:07.372Z,6.70
2022-11-05T09:10:35.010Z,6.80
2022-11-05T09:13:02.212Z,6.90
2022-11-05T09:15:30.040Z,6.90
2022-11-05T09:17:57.702Z,7.10
2022-11-05T09:20:26.579Z,7.10
2022-11-05T09:22:54.612Z,7.20
2022-11-05T09:25:21.878Z,7.30
2022-11-05T09:27:49.245Z,7.40
2022-11-05T09:30:16.661Z,7.50
2022-11-05T09:32:44.062Z,7.60
2022-11-05T09:35:11.782Z,7.60
2022-11-05T09:37:39.570Z,7.80
2022-11-05T09:40:07.377Z,7.80
2022-11-05T09:42:46.567Z,7.90
2022-11-05T09:45:23.117Z,8.00
2022-11-05T09:47:56.404Z,8.10
2022-11-05T09:50:32.847Z,8.10
2022-11-05T09:53:00.770Z,8.20
2022-11-05T09:55:39.028Z,8.30
2022-11-05T09:58:25.988Z,8.40
2022-11-05T10:00:56.732Z,8.40
2022-11-05T10:03:26.584Z,8.50
2022-11-05T10:05:57.579Z,8.50
2022-11-05T10:08:30.174Z,8.60
2022-11-05T10:11:05.494Z,8.70
2022-11-05T10:13:38.727Z,8.80
2022-11-05T10:19:24.868Z,8.90
2022-11-05T10:22:12.701Z,8.90
2022-11-05T10:24:47.529Z,9.00
2022-11-05T10:27:23.851Z,9.00
2022-11-05T10:29:51.737Z,9.10
2022-11-05T10:32:33.955Z,9.10
2022-11-05T10:35:04.548Z,9.20
2022-11-05T10:37:37.000Z,9.20
2022-11-05T10:40:25.703Z,9.30
2022-11-05T10:43:17.134Z,9.40
2022-11-05T10:45:48.830Z,9.50
2022-11-05T10:48:43.709Z,9.50
2022-11-05T10:51:12.248Z,9.60
2022-11-05T10:53:51.412Z,9.60
2022-11-05T10:56:36.739Z,9.70
2022-11-05T10:59:11.875Z,9.70
2022-11-05T11:01:40.304Z,9.80
2022-11-05T11:04:14.285Z,9.90
2022-11-05T11:06:49.280Z,9.90
2022-11-05T11:09:29.675Z,10.00
2022-11-05T11:12:07.666Z,10.00
2022-11-05T11:14:35.616Z,10.00
2022-11-05T11:17:25.059Z,10.00
2022-11-05T11:19:53.909Z,10.10
2022-11-05T11:22:22.275Z,10.10
2022-11-05T11:24:52.019Z,10.20
2022-11-05T11:27:27.178Z,10.20
2022-11-05T11:30:01.629Z,10.30
2022-11-05T11:32:40.172Z,10.40
2022-11-05T11:35:19.584Z,10.40
2022-11-05T11:37:48.042Z,10.50
2022-11-05T11:40:18.056Z,10.50
2022-11-05T11:42:56.039Z,10.50
2022-11-05T11:45:53.675Z,10.50
2022-11-05T11:48:28.998Z,10.60
2022-11-05T11:50:56.913Z,10.60
2022-11-05T11:53:30.451Z,10.60
2022-11-05T11:56:08.672Z,10.70
2022-11-05T11:58:48.906Z,10.70
2022-11-05T12:01:34.733Z,10.60
2022-11-05T12:04:10.833Z,10.70
2022-11-05T12:06:41.418Z,10.70
2022-11-05T12:09:08.694Z,10.70
2022-11-05T12:11:45.624Z,10.80
2022-11-05T12:14:46.266Z,10.80
2022-11-05T12:17:24.802Z,10.90
2022-11-05T12:20:01.034Z,10.90
2022-11-05T12:26:00.246Z,10.90
2022-11-05T12:28:36.354Z,11.00
2022-11-05T12:31:21.353Z,11.00
2022-11-05T12:34:27.565Z,11.00
2022-11-05T12:37:09.653Z,11.00
2022-11-05T12:39:58.700Z,11.00
2022-11-05T12:42:42.841Z,11.00
2022-11-05T12:45:39.475Z,11.00
2022-11-05T12:48:29.201Z,11.10
2022-11-05T12:51:05.172Z,11.10
2022-11-05T12:53:57.383Z,11.10
2022-11-05T12:56:35.131Z,11.20
2022-11-05T12:59:28.981Z,11.30
2022-11-05T13:02:02.957Z,11.30
2022-11-05T13:04:50.436Z,11.40
2022-11-05T13:07:24.485Z,11.40
2022-11-05T13:10:02.268Z,11.40
2022-11-05T13:12:35.033Z,11.50
2022-11-05T13:15:08.131Z,11.50
2022-11-05T13:17:42.720Z,11.50
2022-11-05T13:20:27.633Z,11.50
2022-11-05T13:23:07.278Z,11.50
2022-11-05T13:25:41.847Z,11.50
2022-11-05T13:28:45.824Z,11.50
2022-11-05T13:31:19.103Z,11.50
2022-11-05T13:33:49.909Z,11.60
2022-11-05T13:36:46.655Z,11.60
2022-11-05T13:39:29.587Z,11.60
2022-11-05T13:42:24.231Z,11.60
2022-11-05T13:45:13.084Z,11.60
2022-11-05T13:48:05.197Z,11.60
2022-11-05T13:50:44.385Z,11.60
2022-11-05T13:53:41.364Z,11.60
2022-11-05T13:56:22.184Z,11.60
2022-11-05T13:58:58.065Z,11.60
2022-11-05T14:01:50.777Z,11.60
2022-11-05T14:04:52.238Z,11.60
2022-11-05T14:07:25.280Z,11.60
2022-11-05T14:10:29.472Z,11.60
2022-11-05T14:13:00.872Z,11.60
2022-11-05T14:15:30.581Z,11.60
2022-11-05T14:18:03.554Z,11.60
2022-11-05T14:20:33.676Z,11.60
2022-11-05T14:23:19.782Z,11.60
2022-11-05T14:25:58.564Z,11.50
2022-11-05T14:28:34.897Z,11.50
2022-11-05T14:31:03.539Z,11.50
2022-11-05T14:33:39.149Z,11.50
2022-11-05T14:36:21.409Z,11.40
2022-11-05T14:38:53.941Z,11.40
2022-11-05T14:41:22.833Z,11.40
2022-11-05T14:44:01.568Z,11.40
2022-11-05T14:46:47.070Z,11.30
2022-11-05T14:49:25.890Z,11.30
2022-11-05T14:51:56.368Z,11.30
2022-11-05T14:54:52.656Z,11.30
2022-11-05T14:57:42.368Z,11.30
2022-11-05T15:00:36.947Z,11.30
2022-11-05T15:03:30.418Z,11.20
2022-11-05T15:06:16.747Z,11.20
2022-11-05T15:08:49.950Z,11.10
2022-11-05T15:11:36.346Z,11.10
2022-11-05T15:14:30.534Z,11.00
2022-11-05T15:17:13.927Z,11.00
2022-11-05T15:19:42.248Z,11.00
2022-11-05T15:22:26.952Z,10.90
2022-11-05T15:24:54.933Z,10.90
2022-11-05T15:27:22.065Z,10.80
2022-11-05T15:29:49.426Z,10.80
2022-11-05T15:32:18.703Z,10.80
2022-11-05T15:34:55.047Z,10.70
2022-11-05T15:37:27.234Z,10.70
2022-11-05T15:39:55.922Z,10.60
2022-11-05T15:42:27.582Z,10.60
2022-11-05T15:44:57.210Z,10.60
2022-11-05T15:47:27.704Z,10.50
2022-11-05T15:49:57.632Z,10.50
2022-11-05T15:52:36.961Z,10.40
2022-11-05T15:55:09.108Z,10.30
2022-11-05T15:57:40.093Z,10.40
2022-11-05T16:00:16.796Z,10.30
2022-11-05T16:02:50.452Z,10.30
2022-11-05T16:05:18.116Z,10.20
2022-11-05T16:07:47.103Z,10.20
2022-11-05T16:10:46.327Z,10.10
2022-11-05T16:13:24.153Z,10.00
2022-11-05T16:15:56.741Z,10.00
2022-11-05T16:18:30.634Z,9.90
2022-11-05T16:21:24.226Z,9.90
2022-11-05T16:23:57.315Z,9.80
2022-11-05T16:27:01.161Z,9.70
2022-11-05T16:29:29.927Z,9.70
2022-11-05T16:31:59.203Z,9.60
2022-11-05T16:34:32.473Z,9.60
2022-11-05T16:37:00.141Z,9.60
2022-11-05T16:39:27.715Z,9.60
2022-11-05T16:41:55.095Z,9.60
2022-11-05T16:44:22.396Z,9.50
2022-11-05T16:46:50.403Z,9.50
2022-11-05T16:49:18.840Z,9.50
2022-11-05T16:51:46.146Z,9.40
2022-11-05T16:54:13.444Z,9.40
2022-11-05T16:56:43.819Z,9.40
2022-11-05T16:59:13.823Z,9.40
2022-11-05T17:01:43.528Z,9.30
2022-11-05T17:04:13.448Z,9.30
2022-11-05T17:06:41.007Z,9.20
2022-11-05T17:09:08.327Z,9.20
2022-11-05T17:11:35.789Z,9.20
2022-11-05T17:14:03.257Z,9.20
2022-11-05T17:16:30.488Z,9.10
2022-11-05T17:19:00.026Z,9.10
2022-11-05T17:21:29.054Z,9.10
2022-11-05T17:23:56.775Z,9.10
2022-11-05T17:26:24.153Z,9.10
2022-11-05T17:28:51.448Z,9.00
2022-11-05T17:31:18.789Z,9.00
2022-11-05T17:33:46.210Z,9.00
2022-11-05T17:36:16.243Z,9.00
2022-11-05T17:38:43.852Z,9.00
2022-11-05T17:41:18.122Z,9.00
2022-11-05T17:43:46.229Z,9.00
2022-11-05T17:46:16.370Z,9.00
2022-11-05T17:48:45.126Z,8.90
2022-11-05T17:51:15.391Z,8.90
2022-11-05T17:53:42.771Z,8.90
2022-11-05T17:56:20.122Z,8.90
2022-11-05T17:58:51.890Z,8.90
2022-11-05T18:01:32.061Z,8.90
2022-11-05T18:04:05.405Z,8.90
2022-11-05T18:06:39.964Z,8.90
2022-11-05T18:09:09.317Z,8.90
2022-11-05T18:11:37.551Z,8.90
2022-11-05T18:14:05.551Z,8.90
2022-11-05T18:16:33.489Z,8.90
2022-11-05T18:19:01.197Z,8.90
2022-11-05T18:21:29.012Z,8.90
2022-11-05T18:23:56.775Z,8.80
2022-11-05T18:26:23.966Z,8.80
2022-11-05T18:28:51.546Z,8.80
2022-11-05T18:31:21.543Z,8.80
2022-11-05T18:33:50.873Z,8.80
2022-11-05T18:36:23.579Z,8.70
2022-11-05T18:38:51.246Z,8.70
2022-11-05T18:41:19.128Z,8.70
2022-11-05T18:43:47.390Z,8.70
2022-11-05T18:46:35.838Z,8.70
2022-11-05T18:49:02.845Z,8.60
2022-11-05T18:51:30.064Z,8.60
2022-11-05T18:53:58.223Z,8.60
2022-11-05T18:56:25.577Z,8.60
2022-11-05T18:59:14.558Z,8.60
2022-11-05T19:01:42.065Z,8.60
2022-11-05T19:04:09.559Z,8.60
2022-11-05T19:06:38.101Z,8.60
2022-11-05T19:09:07.860Z,8.60
2022-11-05T19:11:35.770Z,8.50
2022-11-05T19:14:03.661Z,8.60
2022-11-05T19:16:31.859Z,8.50
2022-11-05T19:19:01.366Z,8.50
2022-11-05T19:21:29.384Z,8.50
2022-11-05T19:24:00.528Z,8.50
2022-11-05T19:26:29.205Z,8.50
2022-11-05T19:28:59.850Z,8.50
2022-11-05T19:31:28.040Z,8.40
2022-11-05T19:33:56.682Z,8.40
2022-11-05T19:36:25.048Z,8.40
2022-11-05T19:39:01.815Z,8.40
2022-11-05T19:41:29.376Z,8.40
2022-11-05T19:44:02.295Z,8.40
2022-11-05T19:46:31.243Z,8.40
2022-11-05T19:48:59.883Z,8.40
2022-11-05T19:51:29.584Z,8.40
2022-11-05T19:53:58.692Z,8.40
2022-11-05T19:56:32.196Z,8.40
2022-11-05T19:59:00.970Z,8.40
2022-11-05T20:01:29.914Z,8.40
2022-11-05T20:03:59.248Z,8.40
2022-11-05T20:06:37.974Z,8.40
2022-11-05T20:09:21.640Z,8.40
2022-11-05T20:11:55.024Z,8.40
2022-11-05T20:14:23.631Z,8.50
2022-11-05T20:16:52.567Z,8.40
2022-11-05T20:19:21.826Z,8.40
2022-11-05T20:21:49.680Z,8.40
2022-11-05T20:24:24.185Z,8.40
2022-11-05T20:26:53.067Z,8.50
2022-11-05T20:29:20.568Z,8.50
2022-11-05T20:31:50.254Z,8.40
2022-11-05T20:34:17.604Z,8.50
2022-11-05T20:36:45.266Z,8.50
2022-11-05T20:39:13.403Z,8.40
2022-11-05T20:41:40.889Z,8.50
2022-11-05T20:44:08.130Z,8.50
2022-11-05T20:46:35.725Z,8.50
2022-11-05T20:49:02.821Z,8.50
2022-11-05T20:51:30.152Z,8.50
2022-11-05T20:53:59.141Z,8.50
2022-11-05T20:56:29.615Z,8.50
2022-11-05T20:58:58.829Z,8.50
2022-11-05T21:01:31.612Z,8.50
2022-11-05T21:04:00.101Z,8.50
2022-11-05T21:06:27.507Z,8.50
2022-11-05T21:08:54.977Z,8.50
2022-11-05T21:11:22.162Z,8.50
2022-11-05T21:13:49.508Z,8.50
2022-11-05T21:16:18.924Z,8.50
2022-11-05T21:18:47.068Z,8.50
2022-11-05T21:21:20.182Z,8.40
2022-11-05T21:23:47.767Z,8.40
2022-11-05T21:26:17.344Z,8.40
2022-11-05T21:28:44.646Z,8.40
2022-11-05T21:31:12.125Z,8.40
2022-11-05T21:33:39.621Z,8.40
2022-11-05T21:36:13.077Z,8.40
2022-11-05T21:38:41.517Z,8.40
2022-11-05T21:41:10.946Z,8.50
2022-11-05T21:43:40.965Z,8.40
2022-11-05T21:46:08.271Z,8.40
2022-11-05T21:48:36.562Z,8.50
2022-11-05T21:51:22.523Z,8.50
2022-11-05T21:54:08.307Z,8.50
2022-11-05T21:56:55.418Z,8.50
2022-11-05T21:59:43.338Z,8.50
2022-11-05T22:02:13.049Z,8.50
2022-11-05T22:04:44.323Z,8.50
2022-11-05T22:07:14.079Z,8.40
2022-11-05T22:12:35.671Z,8.40
2022-11-05T22:15:03.018Z,8.40
2022-11-05T22:17:30.455Z,8.40
2022-11-05T22:19:58.096Z,8.30
2022-11-05T22:22:25.910Z,8.30
2022-11-05T22:24:53.357Z,8.30
2022-11-05T22:27:24.552Z,8.30
2022-11-05T22:29:52.123Z,8.20
2022-11-05T22:32:19.297Z,8.20
2022-11-05T22:34:48.852Z,8.20
2022-11-05T22:37:16.428Z,8.20
2022-11-05T22:39:43.727Z,8.20
2022-11-05T22:42:10.743Z,8.20
2022-11-05T22:44:38.249Z,8.20
2022-11-05T22:47:08.199Z,8.10
2022-11-05T22:49:35.694Z,8.10
2022-11-05T22:52:03.388Z,8.10
2022-11-05T22:54:35.105Z,8.10
2022-11-05T22:57:05.403Z,8.10
2022-11-05T22:59:33.051Z,8.10
2022-11-05T23:02:02.901Z,8.10
2022-11-05T23:04:34.169Z,8.00
2022-11-05T23:07:27.988Z,8.00
2022-11-05T23:10:14.971Z,8.00
2022-11-05T23:12:43.907Z,8.00
2022-11-05T23:15:33.091Z,8.00
2022-11-05T23:18:19.066Z,8.00
2022-11-05T23:21:08.334Z,8.00
2022-11-05T23:23:54.373Z,8.00
2022-11-05T23:26:43.443Z,8.00
2022-11-05T23:29:13.004Z,8.00
2022-11-05T23:31:58.983Z,8.00
2022-11-05T23:34:26.749Z,7.90
2022-11-05T23:37:12.614Z,7.90
2022-11-05T23:39:42.625Z,7.90
2022-11-05T23:42:29.652Z,7.80
2022-11-05T23:45:15.913Z,7.80
2022-11-05T23:48:02.010Z,7.80
2022-11-05T23:50:38.494Z,7.80
2022-11-05T23:53:08.237Z,7.80
2022-11-05T23:55:38.653Z,7.80
2022-11-05T23:58:06.609Z,7.80
